sensor_id;sensor_type;location;lat;lon;timestamp;P1;durP1;ratioP1;P2;durP2;ratioP2
52102;SDS011;38101;53.126;6.878;2023-08-08T00:00:23;5.05;;;2.80;;
52102;SDS011;38101;53.126;6.878;2023-08-08T00:02:49;5.78;;;3.15;;
52102;SDS011;38101;53.126;6.878;2023-08-08T00:05:14;6.28;;;2.85;;
52102;SDS011;38101;53.126;6.878;2023-08-08T00:07:41;5.13;;;3.15;;
52102;SDS011;38101;53.126;6.878;2023-08-08T00:10:06;5.47;;;3.10;;
52102;SDS011;38101;53.126;6.878;2023-08-08T00:12:32;4.95;;;2.80;;
52102;SDS011;38101;53.126;6.878;2023-08-08T00:14:58;5.50;;;2.95;;
52102;SDS011;38101;53.126;6.878;2023-08-08T00:17:23;4.97;;;2.75;;
52102;SDS011;38101;53.126;6.878;2023-08-08T00:19:49;4.88;;;2.92;;
52102;SDS011;38101;53.126;6.878;2023-08-08T00:22:15;4.78;;;2.80;;
52102;SDS011;38101;53.126;6.878;2023-08-08T00:24:40;6.35;;;3.28;;
52102;SDS011;38101;53.126;6.878;2023-08-08T00:27:06;6.60;;;3.42;;
52102;SDS011;38101;53.126;6.878;2023-08-08T00:29:32;5.20;;;3.67;;
52102;SDS011;38101;53.126;6.878;2023-08-08T00:31:58;6.50;;;3.50;;
52102;SDS011;38101;53.126;6.878;2023-08-08T00:34:23;5.05;;;3.15;;
52102;SDS011;38101;53.126;6.878;2023-08-08T00:36:49;6.30;;;3.38;;
52102;SDS011;38101;53.126;6.878;2023-08-08T00:39:14;5.70;;;2.90;;
52102;SDS011;38101;53.126;6.878;2023-08-08T00:41:40;4.68;;;3.22;;
52102;SDS011;38101;53.126;6.878;2023-08-08T00:44:06;6.18;;;3.08;;
52102;SDS011;38101;53.126;6.878;2023-08-08T00:46:31;6.25;;;3.00;;
52102;SDS011;38101;53.126;6.878;2023-08-08T00:48:57;4.15;;;3.05;;
52102;SDS011;38101;53.126;6.878;2023-08-08T00:51:23;5.20;;;3.13;;
52102;SDS011;38101;53.126;6.878;2023-08-08T00:53:49;5.22;;;3.10;;
52102;SDS011;38101;53.126;6.878;2023-08-08T00:56:15;7.82;;;3.38;;
52102;SDS011;38101;53.126;6.878;2023-08-08T00:58:42;5.30;;;2.80;;
52102;SDS011;38101;53.126;6.878;2023-08-08T01:01:11;6.32;;;3.60;;
52102;SDS011;38101;53.126;6.878;2023-08-08T01:03:38;5.85;;;3.20;;
52102;SDS011;38101;53.126;6.878;2023-08-08T01:06:06;5.07;;;2.90;;
52102;SDS011;38101;53.126;6.878;2023-08-08T01:08:58;5.38;;;3.03;;
52102;SDS011;38101;53.126;6.878;2023-08-08T01:11:30;4.53;;;2.97;;
52102;SDS011;38101;53.126;6.878;2023-08-08T01:13:58;6.55;;;3.33;;
52102;SDS011;38101;53.126;6.878;2023-08-08T01:16:24;4.90;;;2.80;;
52102;SDS011;38101;53.126;6.878;2023-08-08T01:18:51;5.47;;;3.13;;
52102;SDS011;38101;53.126;6.878;2023-08-08T01:21:18;5.13;;;3.45;;
52102;SDS011;38101;53.126;6.878;2023-08-08T01:23:46;5.70;;;3.17;;
52102;SDS011;38101;53.126;6.878;2023-08-08T01:28:45;9.07;;;3.10;;
52102;SDS011;38101;53.126;6.878;2023-08-08T01:31:11;4.25;;;2.80;;
52102;SDS011;38101;53.126;6.878;2023-08-08T01:33:37;7.78;;;3.17;;
52102;SDS011;38101;53.126;6.878;2023-08-08T01:36:05;4.60;;;3.13;;
52102;SDS011;38101;53.126;6.878;2023-08-08T01:38:42;4.78;;;3.13;;
52102;SDS011;38101;53.126;6.878;2023-08-08T01:41:11;6.40;;;2.90;;
52102;SDS011;38101;53.126;6.878;2023-08-08T01:43:38;6.10;;;3.30;;
52102;SDS011;38101;53.126;6.878;2023-08-08T01:46:05;4.82;;;2.92;;
52102;SDS011;38101;53.126;6.878;2023-08-08T01:48:32;4.53;;;2.70;;
52102;SDS011;38101;53.126;6.878;2023-08-08T01:50:58;6.22;;;3.10;;
52102;SDS011;38101;53.126;6.878;2023-08-08T01:53:23;4.30;;;2.90;;
52102;SDS011;38101;53.126;6.878;2023-08-08T01:55:49;5.10;;;2.90;;
52102;SDS011;38101;53.126;6.878;2023-08-08T01:58:15;5.88;;;3.10;;
52102;SDS011;38101;53.126;6.878;2023-08-08T02:00:41;5.95;;;3.33;;
52102;SDS011;38101;53.126;6.878;2023-08-08T02:03:09;5.38;;;3.08;;
52102;SDS011;38101;53.126;6.878;2023-08-08T02:05:34;6.20;;;3.35;;
52102;SDS011;38101;53.126;6.878;2023-08-08T02:08:00;7.18;;;3.50;;
52102;SDS011;38101;53.126;6.878;2023-08-08T02:10:26;4.78;;;3.13;;
52102;SDS011;38101;53.126;6.878;2023-08-08T02:12:51;5.35;;;3.13;;
52102;SDS011;38101;53.126;6.878;2023-08-08T02:15:17;6.50;;;3.50;;
52102;SDS011;38101;53.126;6.878;2023-08-08T02:17:43;6.85;;;3.55;;
52102;SDS011;38101;53.126;6.878;2023-08-08T02:20:10;5.10;;;3.33;;
52102;SDS011;38101;53.126;6.878;2023-08-08T02:22:37;6.35;;;3.33;;
52102;SDS011;38101;53.126;6.878;2023-08-08T02:25:02;5.50;;;3.25;;
52102;SDS011;38101;53.126;6.878;2023-08-08T02:27:29;5.22;;;2.80;;
52102;SDS011;38101;53.126;6.878;2023-08-08T02:29:54;4.18;;;3.08;;
52102;SDS011;38101;53.126;6.878;2023-08-08T02:32:22;6.50;;;3.38;;
52102;SDS011;38101;53.126;6.878;2023-08-08T02:34:48;7.53;;;3.50;;
52102;SDS011;38101;53.126;6.878;2023-08-08T02:37:14;6.10;;;3.42;;
52102;SDS011;38101;53.126;6.878;2023-08-08T02:39:41;7.75;;;3.47;;
52102;SDS011;38101;53.126;6.878;2023-08-08T02:42:07;7.40;;;3.42;;
52102;SDS011;38101;53.126;6.878;2023-08-08T02:44:33;5.50;;;3.17;;
52102;SDS011;38101;53.126;6.878;2023-08-08T02:46:59;5.00;;;3.15;;
52102;SDS011;38101;53.126;6.878;2023-08-08T02:49:24;7.00;;;3.90;;
52102;SDS011;38101;53.126;6.878;2023-08-08T02:51:50;6.45;;;3.58;;
52102;SDS011;38101;53.126;6.878;2023-08-08T02:54:15;5.68;;;3.30;;
52102;SDS011;38101;53.126;6.878;2023-08-08T02:56:41;6.25;;;3.47;;
52102;SDS011;38101;53.126;6.878;2023-08-08T02:59:07;4.72;;;3.33;;
52102;SDS011;38101;53.126;6.878;2023-08-08T03:01:32;4.78;;;3.30;;
52102;SDS011;38101;53.126;6.878;2023-08-08T03:04:02;5.45;;;3.10;;
52102;SDS011;38101;53.126;6.878;2023-08-08T03:06:28;6.45;;;3.40;;
52102;SDS011;38101;53.126;6.878;2023-08-08T03:08:54;4.47;;;3.13;;
52102;SDS011;38101;53.126;6.878;2023-08-08T03:11:19;6.43;;;3.55;;
52102;SDS011;38101;53.126;6.878;2023-08-08T03:13:45;4.68;;;3.47;;
52102;SDS011;38101;53.126;6.878;2023-08-08T03:16:11;6.63;;;3.33;;
52102;SDS011;38101;53.126;6.878;2023-08-08T03:18:36;7.72;;;3.55;;
52102;SDS011;38101;53.126;6.878;2023-08-08T03:21:02;8.05;;;3.45;;
52102;SDS011;38101;53.126;6.878;2023-08-08T03:23:28;7.47;;;3.58;;
52102;SDS011;38101;53.126;6.878;2023-08-08T03:25:53;5.80;;;3.17;;
52102;SDS011;38101;53.126;6.878;2023-08-08T03:28:19;7.43;;;3.53;;
52102;SDS011;38101;53.126;6.878;2023-08-08T03:30:45;7.03;;;3.50;;
52102;SDS011;38101;53.126;6.878;2023-08-08T03:33:10;5.78;;;3.28;;
52102;SDS011;38101;53.126;6.878;2023-08-08T03:35:36;6.45;;;4.00;;
52102;SDS011;38101;53.126;6.878;2023-08-08T03:38:02;6.05;;;3.53;;
52102;SDS011;38101;53.126;6.878;2023-08-08T03:40:28;6.85;;;3.50;;
52102;SDS011;38101;53.126;6.878;2023-08-08T03:42:53;7.57;;;3.83;;
52102;SDS011;38101;53.126;6.878;2023-08-08T03:45:19;6.30;;;3.50;;
52102;SDS011;38101;53.126;6.878;2023-08-08T03:47:44;5.57;;;3.55;;
52102;SDS011;38101;53.126;6.878;2023-08-08T03:50:10;7.35;;;3.40;;
52102;SDS011;38101;53.126;6.878;2023-08-08T03:52:36;6.18;;;3.40;;
52102;SDS011;38101;53.126;6.878;2023-08-08T03:55:03;5.72;;;3.28;;
52102;SDS011;38101;53.126;6.878;2023-08-08T03:57:29;6.18;;;3.30;;
52102;SDS011;38101;53.126;6.878;2023-08-08T03:59:55;5.53;;;3.38;;
52102;SDS011;38101;53.126;6.878;2023-08-08T04:02:21;4.55;;;3.00;;
52102;SDS011;38101;53.126;6.878;2023-08-08T04:04:46;5.55;;;2.90;;
52102;SDS011;38101;53.126;6.878;2023-08-08T04:07:12;7.00;;;3.33;;
52102;SDS011;38101;53.126;6.878;2023-08-08T04:09:38;7.38;;;3.30;;
52102;SDS011;38101;53.126;6.878;2023-08-08T04:12:03;5.85;;;3.60;;
52102;SDS011;38101;53.126;6.878;2023-08-08T04:14:29;5.65;;;2.80;;
52102;SDS011;38101;53.126;6.878;2023-08-08T04:16:55;6.18;;;2.92;;
52102;SDS011;38101;53.126;6.878;2023-08-08T04:19:21;5.25;;;2.83;;
52102;SDS011;38101;53.126;6.878;2023-08-08T04:21:46;4.88;;;2.72;;
52102;SDS011;38101;53.126;6.878;2023-08-08T04:24:12;5.03;;;2.88;;
52102;SDS011;38101;53.126;6.878;2023-08-08T04:26:38;5.22;;;2.65;;
52102;SDS011;38101;53.126;6.878;2023-08-08T04:29:04;6.50;;;2.70;;
52102;SDS011;38101;53.126;6.878;2023-08-08T04:31:30;7.43;;;2.97;;
52102;SDS011;38101;53.126;6.878;2023-08-08T04:33:56;5.72;;;2.38;;
52102;SDS011;38101;53.126;6.878;2023-08-08T04:36:25;8.13;;;2.95;;
52102;SDS011;38101;53.126;6.878;2023-08-08T04:38:54;5.28;;;2.72;;
52102;SDS011;38101;53.126;6.878;2023-08-08T04:41:19;9.07;;;3.80;;
52102;SDS011;38101;53.126;6.878;2023-08-08T04:43:45;5.55;;;2.80;;
52102;SDS011;38101;53.126;6.878;2023-08-08T04:46:11;4.90;;;2.40;;
52102;SDS011;38101;53.126;6.878;2023-08-08T04:48:37;6.43;;;2.92;;
52102;SDS011;38101;53.126;6.878;2023-08-08T04:51:06;5.68;;;2.60;;
52102;SDS011;38101;53.126;6.878;2023-08-08T04:53:34;4.15;;;2.50;;
52102;SDS011;38101;53.126;6.878;2023-08-08T04:55:59;7.88;;;3.00;;
52102;SDS011;38101;53.126;6.878;2023-08-08T04:58:25;4.65;;;2.70;;
52102;SDS011;38101;53.126;6.878;2023-08-08T05:00:51;6.88;;;3.03;;
52102;SDS011;38101;53.126;6.878;2023-08-08T05:03:17;5.65;;;3.05;;
52102;SDS011;38101;53.126;6.878;2023-08-08T05:05:43;5.57;;;2.72;;
52102;SDS011;38101;53.126;6.878;2023-08-08T05:08:15;6.10;;;2.78;;
52102;SDS011;38101;53.126;6.878;2023-08-08T05:10:41;5.93;;;2.65;;
52102;SDS011;38101;53.126;6.878;2023-08-08T05:13:07;7.00;;;2.70;;
52102;SDS011;38101;53.126;6.878;2023-08-08T05:15:34;6.20;;;2.60;;
52102;SDS011;38101;53.126;6.878;2023-08-08T05:18:00;5.50;;;2.65;;
52102;SDS011;38101;53.126;6.878;2023-08-08T05:20:25;5.40;;;2.90;;
52102;SDS011;38101;53.126;6.878;2023-08-08T05:22:51;5.28;;;2.75;;
52102;SDS011;38101;53.126;6.878;2023-08-08T05:25:17;5.57;;;2.75;;
52102;SDS011;38101;53.126;6.878;2023-08-08T05:27:42;7.35;;;3.08;;
52102;SDS011;38101;53.126;6.878;2023-08-08T05:30:08;4.47;;;2.65;;
52102;SDS011;38101;53.126;6.878;2023-08-08T05:32:34;6.07;;;2.72;;
52102;SDS011;38101;53.126;6.878;2023-08-08T05:35:00;6.20;;;2.60;;
52102;SDS011;38101;53.126;6.878;2023-08-08T05:37:28;6.05;;;2.60;;
52102;SDS011;38101;53.126;6.878;2023-08-08T05:39:54;5.85;;;2.40;;
52102;SDS011;38101;53.126;6.878;2023-08-08T05:42:20;8.38;;;2.70;;
52102;SDS011;38101;53.126;6.878;2023-08-08T05:44:45;7.28;;;2.95;;
52102;SDS011;38101;53.126;6.878;2023-08-08T05:47:11;5.45;;;2.70;;
52102;SDS011;38101;53.126;6.878;2023-08-08T05:49:38;7.20;;;2.58;;
52102;SDS011;38101;53.126;6.878;2023-08-08T05:52:04;5.15;;;2.25;;
52102;SDS011;38101;53.126;6.878;2023-08-08T05:54:30;5.95;;;2.35;;
52102;SDS011;38101;53.126;6.878;2023-08-08T05:56:56;6.32;;;2.63;;
52102;SDS011;38101;53.126;6.878;2023-08-08T05:59:21;6.25;;;2.70;;
52102;SDS011;38101;53.126;6.878;2023-08-08T06:01:47;5.50;;;2.40;;
52102;SDS011;38101;53.126;6.878;2023-08-08T06:04:13;5.05;;;2.17;;
52102;SDS011;38101;53.126;6.878;2023-08-08T06:06:39;6.47;;;2.25;;
52102;SDS011;38101;53.126;6.878;2023-08-08T06:09:04;6.57;;;2.35;;
52102;SDS011;38101;53.126;6.878;2023-08-08T06:11:30;7.10;;;2.42;;
52102;SDS011;38101;53.126;6.878;2023-08-08T06:13:56;7.75;;;2.45;;
52102;SDS011;38101;53.126;6.878;2023-08-08T06:16:22;6.55;;;2.60;;
52102;SDS011;38101;53.126;6.878;2023-08-08T06:18:47;7.80;;;2.30;;
52102;SDS011;38101;53.126;6.878;2023-08-08T06:21:13;6.07;;;2.10;;
52102;SDS011;38101;53.126;6.878;2023-08-08T06:23:39;7.55;;;2.42;;
52102;SDS011;38101;53.126;6.878;2023-08-08T06:26:06;4.82;;;1.98;;
52102;SDS011;38101;53.126;6.878;2023-08-08T06:28:32;8.70;;;1.95;;
52102;SDS011;38101;53.126;6.878;2023-08-08T06:30:58;4.80;;;2.00;;
52102;SDS011;38101;53.126;6.878;2023-08-08T06:33:24;4.32;;;2.33;;
52102;SDS011;38101;53.126;6.878;2023-08-08T06:35:49;5.65;;;2.30;;
52102;SDS011;38101;53.126;6.878;2023-08-08T06:38:15;4.93;;;1.90;;
52102;SDS011;38101;53.126;6.878;2023-08-08T06:40:40;7.80;;;2.10;;
52102;SDS011;38101;53.126;6.878;2023-08-08T06:43:06;6.75;;;2.35;;
52102;SDS011;38101;53.126;6.878;2023-08-08T06:45:32;5.30;;;2.13;;
52102;SDS011;38101;53.126;6.878;2023-08-08T06:47:57;4.65;;;1.80;;
52102;SDS011;38101;53.126;6.878;2023-08-08T06:50:23;5.88;;;1.95;;
52102;SDS011;38101;53.126;6.878;2023-08-08T06:52:49;6.72;;;2.05;;
52102;SDS011;38101;53.126;6.878;2023-08-08T06:55:15;4.82;;;1.85;;
52102;SDS011;38101;53.126;6.878;2023-08-08T06:57:41;6.07;;;2.28;;
52102;SDS011;38101;53.126;6.878;2023-08-08T07:00:07;8.60;;;3.00;;
52102;SDS011;38101;53.126;6.878;2023-08-08T07:02:33;6.35;;;1.75;;
52102;SDS011;38101;53.126;6.878;2023-08-08T07:04:59;4.50;;;1.92;;
52102;SDS011;38101;53.126;6.878;2023-08-08T07:07:25;7.53;;;2.10;;
52102;SDS011;38101;53.126;6.878;2023-08-08T07:09:51;7.85;;;2.70;;
52102;SDS011;38101;53.126;6.878;2023-08-08T07:12:17;4.63;;;2.08;;
52102;SDS011;38101;53.126;6.878;2023-08-08T07:14:43;7.07;;;2.10;;
52102;SDS011;38101;53.126;6.878;2023-08-08T07:17:08;5.30;;;1.80;;
52102;SDS011;38101;53.126;6.878;2023-08-08T07:19:35;5.10;;;1.90;;
52102;SDS011;38101;53.126;6.878;2023-08-08T07:22:01;6.07;;;2.17;;
52102;SDS011;38101;53.126;6.878;2023-08-08T07:24:27;5.00;;;2.10;;
52102;SDS011;38101;53.126;6.878;2023-08-08T07:26:58;5.47;;;2.10;;
52102;SDS011;38101;53.126;6.878;2023-08-08T07:29:24;5.38;;;2.05;;
52102;SDS011;38101;53.126;6.878;2023-08-08T07:31:53;4.13;;;1.55;;
52102;SDS011;38101;53.126;6.878;2023-08-08T07:34:19;5.53;;;1.80;;
52102;SDS011;38101;53.126;6.878;2023-08-08T07:36:45;6.30;;;1.70;;
52102;SDS011;38101;53.126;6.878;2023-08-08T07:39:12;6.00;;;2.05;;
52102;SDS011;38101;53.126;6.878;2023-08-08T07:41:38;5.47;;;1.90;;
52102;SDS011;38101;53.126;6.878;2023-08-08T07:44:04;4.15;;;1.67;;
52102;SDS011;38101;53.126;6.878;2023-08-08T07:46:30;4.20;;;1.52;;
52102;SDS011;38101;53.126;6.878;2023-08-08T07:48:56;6.78;;;1.63;;
52102;SDS011;38101;53.126;6.878;2023-08-08T07:51:24;5.28;;;1.88;;
52102;SDS011;38101;53.126;6.878;2023-08-08T07:53:50;3.53;;;1.70;;
52102;SDS011;38101;53.126;6.878;2023-08-08T07:56:16;5.05;;;1.77;;
52102;SDS011;38101;53.126;6.878;2023-08-08T07:58:41;3.88;;;1.60;;
52102;SDS011;38101;53.126;6.878;2023-08-08T08:01:07;5.95;;;1.40;;
52102;SDS011;38101;53.126;6.878;2023-08-08T08:03:33;4.53;;;1.80;;
52102;SDS011;38101;53.126;6.878;2023-08-08T08:05:59;4.20;;;1.58;;
52102;SDS011;38101;53.126;6.878;2023-08-08T08:08:25;5.90;;;1.70;;
52102;SDS011;38101;53.126;6.878;2023-08-08T08:10:50;6.53;;;1.80;;
52102;SDS011;38101;53.126;6.878;2023-08-08T08:13:16;5.97;;;1.92;;
52102;SDS011;38101;53.126;6.878;2023-08-08T08:15:42;3.75;;;1.60;;
52102;SDS011;38101;53.126;6.878;2023-08-08T08:18:08;4.72;;;1.85;;
52102;SDS011;38101;53.126;6.878;2023-08-08T08:20:34;6.43;;;1.90;;
52102;SDS011;38101;53.126;6.878;2023-08-08T08:23:00;7.22;;;1.85;;
52102;SDS011;38101;53.126;6.878;2023-08-08T08:25:25;3.40;;;1.60;;
52102;SDS011;38101;53.126;6.878;2023-08-08T08:27:51;6.00;;;2.15;;
52102;SDS011;38101;53.126;6.878;2023-08-08T08:30:17;5.82;;;1.70;;
52102;SDS011;38101;53.126;6.878;2023-08-08T08:32:43;8.13;;;2.53;;
52102;SDS011;38101;53.126;6.878;2023-08-08T08:35:09;7.72;;;1.80;;
52102;SDS011;38101;53.126;6.878;2023-08-08T08:37:37;5.93;;;1.92;;
52102;SDS011;38101;53.126;6.878;2023-08-08T08:40:03;7.05;;;1.50;;
52102;SDS011;38101;53.126;6.878;2023-08-08T08:42:29;3.90;;;1.77;;
52102;SDS011;38101;53.126;6.878;2023-08-08T08:44:57;4.13;;;1.67;;
52102;SDS011;38101;53.126;6.878;2023-08-08T08:47:24;3.67;;;1.48;;
52102;SDS011;38101;53.126;6.878;2023-08-08T08:49:54;5.97;;;2.00;;
52102;SDS011;38101;53.126;6.878;2023-08-08T08:52:21;3.75;;;1.60;;
52102;SDS011;38101;53.126;6.878;2023-08-08T08:54:48;5.75;;;1.90;;
52102;SDS011;38101;53.126;6.878;2023-08-08T08:57:14;3.85;;;1.20;;
52102;SDS011;38101;53.126;6.878;2023-08-08T08:59:40;4.75;;;1.70;;
52102;SDS011;38101;53.126;6.878;2023-08-08T09:02:06;4.43;;;1.73;;
52102;SDS011;38101;53.126;6.878;2023-08-08T09:04:33;6.10;;;1.73;;
52102;SDS011;38101;53.126;6.878;2023-08-08T09:07:00;4.55;;;1.50;;
52102;SDS011;38101;53.126;6.878;2023-08-08T09:09:25;6.57;;;2.00;;
52102;SDS011;38101;53.126;6.878;2023-08-08T09:11:52;8.50;;;2.95;;
52102;SDS011;38101;53.126;6.878;2023-08-08T09:14:24;7.00;;;1.70;;
52102;SDS011;38101;53.126;6.878;2023-08-08T09:16:51;9.15;;;2.20;;
52102;SDS011;38101;53.126;6.878;2023-08-08T09:19:19;5.57;;;1.80;;
52102;SDS011;38101;53.126;6.878;2023-08-08T09:21:46;4.38;;;1.58;;
52102;SDS011;38101;53.126;6.878;2023-08-08T09:24:12;6.43;;;1.73;;
52102;SDS011;38101;53.126;6.878;2023-08-08T09:26:41;4.55;;;1.80;;
52102;SDS011;38101;53.126;6.878;2023-08-08T09:29:08;4.05;;;1.60;;
52102;SDS011;38101;53.126;6.878;2023-08-08T09:31:35;4.32;;;1.40;;
52102;SDS011;38101;53.126;6.878;2023-08-08T09:34:02;5.50;;;1.70;;
52102;SDS011;38101;53.126;6.878;2023-08-08T09:36:29;6.25;;;1.88;;
52102;SDS011;38101;53.126;6.878;2023-08-08T09:38:55;5.13;;;2.00;;
52102;SDS011;38101;53.126;6.878;2023-08-08T09:41:22;3.20;;;1.65;;
52102;SDS011;38101;53.126;6.878;2023-08-08T09:43:48;4.47;;;1.88;;
52102;SDS011;38101;53.126;6.878;2023-08-08T09:46:15;5.13;;;1.70;;
52102;SDS011;38101;53.126;6.878;2023-08-08T09:48:41;4.97;;;1.98;;
52102;SDS011;38101;53.126;6.878;2023-08-08T09:51:08;4.20;;;1.50;;
52102;SDS011;38101;53.126;6.878;2023-08-08T09:53:33;3.38;;;2.00;;
52102;SDS011;38101;53.126;6.878;2023-08-08T09:56:01;4.00;;;1.67;;
52102;SDS011;38101;53.126;6.878;2023-08-08T09:58:28;5.68;;;1.75;;
52102;SDS011;38101;53.126;6.878;2023-08-08T10:00:54;4.97;;;1.65;;
52102;SDS011;38101;53.126;6.878;2023-08-08T10:03:20;5.63;;;1.50;;
52102;SDS011;38101;53.126;6.878;2023-08-08T10:05:47;3.65;;;1.60;;
52102;SDS011;38101;53.126;6.878;2023-08-08T10:08:16;7.97;;;1.90;;
52102;SDS011;38101;53.126;6.878;2023-08-08T10:10:44;3.97;;;1.58;;
52102;SDS011;38101;53.126;6.878;2023-08-08T10:13:18;4.10;;;1.70;;
52102;SDS011;38101;53.126;6.878;2023-08-08T10:15:48;3.90;;;1.80;;
52102;SDS011;38101;53.126;6.878;2023-08-08T10:18:15;4.78;;;1.88;;
52102;SDS011;38101;53.126;6.878;2023-08-08T10:20:46;7.03;;;1.80;;
52102;SDS011;38101;53.126;6.878;2023-08-08T10:23:16;3.72;;;1.88;;
52102;SDS011;38101;53.126;6.878;2023-08-08T10:25:47;4.60;;;1.92;;
52102;SDS011;38101;53.126;6.878;2023-08-08T10:28:16;6.15;;;1.60;;
52102;SDS011;38101;53.126;6.878;2023-08-08T10:33:38;4.60;;;1.63;;
52102;SDS011;38101;53.126;6.878;2023-08-08T10:36:08;4.75;;;1.58;;
52102;SDS011;38101;53.126;6.878;2023-08-08T10:38:38;3.25;;;1.45;;
52102;SDS011;38101;53.126;6.878;2023-08-08T10:41:08;2.95;;;1.50;;
52102;SDS011;38101;53.126;6.878;2023-08-08T10:43:36;4.50;;;1.58;;
52102;SDS011;38101;53.126;6.878;2023-08-08T10:46:02;3.40;;;1.25;;
52102;SDS011;38101;53.126;6.878;2023-08-08T10:48:29;3.63;;;1.52;;
52102;SDS011;38101;53.126;6.878;2023-08-08T10:50:55;3.20;;;1.52;;
52102;SDS011;38101;53.126;6.878;2023-08-08T10:53:29;2.85;;;1.38;;
52102;SDS011;38101;53.126;6.878;2023-08-08T10:56:02;6.88;;;1.90;;
52102;SDS011;38101;53.126;6.878;2023-08-08T10:58:38;6.57;;;2.25;;
52102;SDS011;38101;53.126;6.878;2023-08-08T11:01:11;4.53;;;1.67;;
52102;SDS011;38101;53.126;6.878;2023-08-08T11:03:38;5.22;;;1.83;;
52102;SDS011;38101;53.126;6.878;2023-08-08T11:06:06;6.45;;;1.95;;
52102;SDS011;38101;53.126;6.878;2023-08-08T11:08:33;3.72;;;1.83;;
52102;SDS011;38101;53.126;6.878;2023-08-08T11:11:00;4.70;;;1.55;;
52102;SDS011;38101;53.126;6.878;2023-08-08T11:13:25;5.97;;;1.80;;
52102;SDS011;38101;53.126;6.878;2023-08-08T11:15:51;6.47;;;2.13;;
52102;SDS011;38101;53.126;6.878;2023-08-08T11:18:17;5.18;;;1.80;;
52102;SDS011;38101;53.126;6.878;2023-08-08T11:20:43;4.30;;;1.80;;
52102;SDS011;38101;53.126;6.878;2023-08-08T11:23:09;4.80;;;1.55;;
52102;SDS011;38101;53.126;6.878;2023-08-08T11:25:36;6.28;;;1.70;;
52102;SDS011;38101;53.126;6.878;2023-08-08T11:28:04;4.93;;;1.85;;
52102;SDS011;38101;53.126;6.878;2023-08-08T11:30:32;4.40;;;1.80;;
52102;SDS011;38101;53.126;6.878;2023-08-08T11:32:59;4.80;;;1.58;;
52102;SDS011;38101;53.126;6.878;2023-08-08T11:35:25;3.67;;;1.83;;
52102;SDS011;38101;53.126;6.878;2023-08-08T11:37:52;4.57;;;1.80;;
52102;SDS011;38101;53.126;6.878;2023-08-08T11:40:20;3.88;;;1.48;;
52102;SDS011;38101;53.126;6.878;2023-08-08T11:42:47;4.05;;;1.60;;
52102;SDS011;38101;53.126;6.878;2023-08-08T11:45:15;6.72;;;1.90;;
52102;SDS011;38101;53.126;6.878;2023-08-08T11:47:41;4.78;;;1.50;;
52102;SDS011;38101;53.126;6.878;2023-08-08T11:50:08;2.65;;;1.80;;
52102;SDS011;38101;53.126;6.878;2023-08-08T11:52:36;6.25;;;1.85;;
52102;SDS011;38101;53.126;6.878;2023-08-08T11:55:06;3.38;;;1.55;;
52102;SDS011;38101;53.126;6.878;2023-08-08T11:57:35;6.25;;;1.58;;
52102;SDS011;38101;53.126;6.878;2023-08-08T12:00:05;6.43;;;1.88;;
52102;SDS011;38101;53.126;6.878;2023-08-08T12:02:39;6.78;;;1.77;;
52102;SDS011;38101;53.126;6.878;2023-08-08T12:05:11;3.85;;;1.30;;
52102;SDS011;38101;53.126;6.878;2023-08-08T12:07:38;4.22;;;1.50;;
52102;SDS011;38101;53.126;6.878;2023-08-08T12:10:12;4.90;;;1.42;;
52102;SDS011;38101;53.126;6.878;2023-08-08T12:12:41;3.20;;;1.27;;
52102;SDS011;38101;53.126;6.878;2023-08-08T12:15:07;4.97;;;1.45;;
52102;SDS011;38101;53.126;6.878;2023-08-08T12:17:34;5.07;;;1.60;;
52102;SDS011;38101;53.126;6.878;2023-08-08T12:20:03;5.28;;;1.45;;
52102;SDS011;38101;53.126;6.878;2023-08-08T12:22:30;3.85;;;1.63;;
52102;SDS011;38101;53.126;6.878;2023-08-08T12:24:57;4.47;;;1.60;;
52102;SDS011;38101;53.126;6.878;2023-08-08T12:27:22;3.42;;;1.40;;
52102;SDS011;38101;53.126;6.878;2023-08-08T12:29:48;2.97;;;1.50;;
52102;SDS011;38101;53.126;6.878;2023-08-08T12:32:14;3.10;;;1.42;;
52102;SDS011;38101;53.126;6.878;2023-08-08T12:34:39;3.53;;;1.15;;
52102;SDS011;38101;53.126;6.878;2023-08-08T12:37:05;4.50;;;1.60;;
52102;SDS011;38101;53.126;6.878;2023-08-08T12:39:31;3.67;;;1.30;;
52102;SDS011;38101;53.126;6.878;2023-08-08T12:41:57;4.65;;;1.85;;
52102;SDS011;38101;53.126;6.878;2023-08-08T12:44:23;5.22;;;1.70;;
52102;SDS011;38101;53.126;6.878;2023-08-08T12:46:48;4.47;;;1.38;;
52102;SDS011;38101;53.126;6.878;2023-08-08T12:49:14;5.60;;;2.00;;
52102;SDS011;38101;53.126;6.878;2023-08-08T12:51:40;3.45;;;1.70;;
52102;SDS011;38101;53.126;6.878;2023-08-08T12:54:05;3.08;;;1.20;;
52102;SDS011;38101;53.126;6.878;2023-08-08T12:56:31;4.18;;;1.70;;
52102;SDS011;38101;53.126;6.878;2023-08-08T12:58:57;4.45;;;1.45;;
52102;SDS011;38101;53.126;6.878;2023-08-08T13:01:23;5.75;;;1.75;;
52102;SDS011;38101;53.126;6.878;2023-08-08T13:03:50;4.13;;;1.75;;
52102;SDS011;38101;53.126;6.878;2023-08-08T13:06:16;5.82;;;1.98;;
52102;SDS011;38101;53.126;6.878;2023-08-08T13:08:41;4.80;;;1.63;;
52102;SDS011;38101;53.126;6.878;2023-08-08T13:11:07;4.88;;;1.77;;
52102;SDS011;38101;53.126;6.878;2023-08-08T13:13:33;5.30;;;1.70;;
52102;SDS011;38101;53.126;6.878;2023-08-08T13:15:59;7.00;;;1.67;;
52102;SDS011;38101;53.126;6.878;2023-08-08T13:18:25;5.82;;;1.50;;
52102;SDS011;38101;53.126;6.878;2023-08-08T13:20:50;6.10;;;1.60;;
52102;SDS011;38101;53.126;6.878;2023-08-08T13:23:17;3.47;;;1.30;;
52102;SDS011;38101;53.126;6.878;2023-08-08T13:25:43;4.75;;;1.50;;
52102;SDS011;38101;53.126;6.878;2023-08-08T13:28:09;3.58;;;1.50;;
52102;SDS011;38101;53.126;6.878;2023-08-08T13:30:34;7.30;;;1.70;;
52102;SDS011;38101;53.126;6.878;2023-08-08T13:33:00;5.22;;;1.58;;
52102;SDS011;38101;53.126;6.878;2023-08-08T13:35:26;7.18;;;2.10;;
52102;SDS011;38101;53.126;6.878;2023-08-08T13:37:52;3.65;;;1.88;;
52102;SDS011;38101;53.126;6.878;2023-08-08T13:40:19;3.22;;;1.40;;
52102;SDS011;38101;53.126;6.878;2023-08-08T13:42:45;4.22;;;1.45;;
52102;SDS011;38101;53.126;6.878;2023-08-08T13:45:13;5.07;;;1.50;;
52102;SDS011;38101;53.126;6.878;2023-08-08T13:47:39;5.13;;;1.60;;
52102;SDS011;38101;53.126;6.878;2023-08-08T13:50:05;4.43;;;1.55;;
52102;SDS011;38101;53.126;6.878;2023-08-08T13:52:32;3.88;;;1.60;;
52102;SDS011;38101;53.126;6.878;2023-08-08T13:54:58;4.53;;;1.50;;
52102;SDS011;38101;53.126;6.878;2023-08-08T13:57:25;5.90;;;1.63;;
52102;SDS011;38101;53.126;6.878;2023-08-08T13:59:50;2.90;;;1.50;;
52102;SDS011;38101;53.126;6.878;2023-08-08T14:02:16;6.50;;;1.67;;
52102;SDS011;38101;53.126;6.878;2023-08-08T14:04:43;5.00;;;1.80;;
52102;SDS011;38101;53.126;6.878;2023-08-08T14:07:09;3.38;;;1.20;;
52102;SDS011;38101;53.126;6.878;2023-08-08T14:09:35;4.07;;;1.60;;
52102;SDS011;38101;53.126;6.878;2023-08-08T14:12:01;4.68;;;1.60;;
52102;SDS011;38101;53.126;6.878;2023-08-08T14:14:27;4.53;;;2.00;;
52102;SDS011;38101;53.126;6.878;2023-08-08T14:16:53;4.85;;;1.35;;
52102;SDS011;38101;53.126;6.878;2023-08-08T14:19:18;3.80;;;1.40;;
52102;SDS011;38101;53.126;6.878;2023-08-08T14:21:44;4.80;;;1.83;;
52102;SDS011;38101;53.126;6.878;2023-08-08T14:24:10;3.60;;;1.73;;
52102;SDS011;38101;53.126;6.878;2023-08-08T14:26:36;3.40;;;1.70;;
52102;SDS011;38101;53.126;6.878;2023-08-08T14:29:02;4.15;;;1.63;;
52102;SDS011;38101;53.126;6.878;2023-08-08T14:31:28;5.32;;;1.50;;
52102;SDS011;38101;53.126;6.878;2023-08-08T14:33:54;5.18;;;2.00;;
52102;SDS011;38101;53.126;6.878;2023-08-08T14:36:19;5.72;;;1.65;;
52102;SDS011;38101;53.126;6.878;2023-08-08T14:38:45;4.53;;;1.40;;
52102;SDS011;38101;53.126;6.878;2023-08-08T14:41:11;6.70;;;1.70;;
52102;SDS011;38101;53.126;6.878;2023-08-08T14:43:37;5.28;;;1.70;;
52102;SDS011;38101;53.126;6.878;2023-08-08T14:46:02;3.17;;;1.42;;
52102;SDS011;38101;53.126;6.878;2023-08-08T14:48:28;4.95;;;2.00;;